This is the latest recevied weather packets stored in our database for station/object OE5RBO. If no packets are shown the sender has not sent any weather packets the latest 10 day(s).
| Time | Temp. | Humidity | Pressure | Rain* | Wind** | Luminosity | Snow |
|---|---|---|---|---|---|---|---|
| 1787522739 | 13.33° C | 96% | 1021.4 hPa | 0 mm | - | - | - |
| 1787522138 | 13.33° C | 96% | 1021.4 hPa | 0 mm | - | - | - |
| 1787520938 | 13.89° C | 94% | 1021.6 hPa | 0 mm | - | - | - |
| 1787520337 | 13.89° C | 93% | 1021.3 hPa | 0 mm | - | - | - |
| 1787519737 | 13.89° C | 93% | 1021.4 hPa | 0 mm | - | - | - |
| 1787517936 | 14.44° C | 94% | 1021.4 hPa | 0 mm | - | - | - |
| 1787517335 | 15° C | 94% | 1021.6 hPa | 0 mm | - | - | - |
| 1787516135 | 15.56° C | 87% | 1021.6 hPa | 0 mm | - | - | - |
| 1787515535 | 15.56° C | 88% | 1021.6 hPa | 0 mm | - | - | - |
| 1787514934 | 15.56° C | 87% | 1021.7 hPa | 0 mm | - | - | - |
| 1787514334 | 15.56° C | 87% | 1021.6 hPa | 0 mm | - | - | - |
| 1787513733 | 16.11° C | 87% | 1021.8 hPa | 0 mm | - | - | - |
| 1787513133 | 16.67° C | 87% | 1021.7 hPa | 0 mm | - | - | - |
| 1787512533 | 17.78° C | 84% | 1021.7 hPa | 0 mm | - | - | - |
| 1787511932 | 18.33° C | 77% | 1021.7 hPa | 0 mm | - | - | - |
| 1787511332 | 18.33° C | 76% | 1021.7 hPa | 0 mm | - | - | - |
| 1787510731 | 18.89° C | 75% | 1021.4 hPa | 0 mm | - | - | - |
| 1787510131 | 18.89° C | 74% | 1021.4 hPa | 0 mm | - | - | - |
| 1787508930 | 19.44° C | 73% | 1021.2 hPa | 0 mm | - | - | - |
| 1787508330 | 20° C | 71% | 1021.2 hPa | 0 mm | - | - | - |
| 1787507730 | 20.56° C | 69% | 1021.2 hPa | 0 mm | - | - | - |
| 1787507129 | 20.56° C | 68% | 1021.2 hPa | 0 mm | - | - | - |
| 1787506529 | 21.11° C | 67% | 1021.2 hPa | 0 mm | - | - | - |
| 1787505328 | 22.78° C | 61% | 1021.1 hPa | 0 mm | - | - | - |
| 1787504728 | 23.33° C | 60% | 1021.1 hPa | 0 mm | - | - | - |
* Rain since midnight (hover to see other rain measurements)
** Current wind speed in m/s (hover to see current wind gust speed)